createdAt,value
2022-10-24T00:00:58.756Z,5.26
2022-10-24T00:02:01.210Z,8.31
2022-10-24T00:03:03.633Z,5.39
2022-10-24T00:05:08.806Z,5.47
2022-10-24T00:06:11.799Z,5.92
2022-10-24T00:07:14.154Z,5.94
2022-10-24T00:08:16.516Z,6.62
2022-10-24T00:09:19.073Z,7.25
2022-10-24T00:10:21.728Z,12.54
2022-10-24T00:11:24.121Z,7.61
2022-10-24T00:12:26.477Z,6.96
2022-10-24T00:13:28.939Z,8.75
2022-10-24T00:14:31.298Z,6.10
2022-10-24T00:15:33.660Z,5.60
2022-10-24T00:16:36.250Z,6.10
2022-10-24T00:17:38.708Z,5.69
2022-10-24T00:18:41.074Z,5.78
2022-10-24T00:19:43.533Z,5.15
2022-10-24T00:20:46.004Z,5.36
2022-10-24T00:21:48.481Z,5.48
2022-10-24T00:22:50.835Z,6.81
2022-10-24T00:23:53.198Z,7.95
2022-10-24T00:24:55.561Z,4.86
2022-10-24T00:25:58.020Z,10.11
2022-10-24T00:27:00.817Z,5.67
2022-10-24T00:28:03.275Z,6.33
2022-10-24T00:29:05.738Z,13.40
2022-10-24T00:30:08.535Z,6.54
2022-10-24T00:31:11.065Z,7.01
2022-10-24T00:32:13.455Z,5.78
2022-10-24T00:33:15.818Z,6.63
2022-10-24T00:34:18.182Z,10.10
2022-10-24T00:35:20.652Z,5.62
2022-10-24T00:36:23.315Z,7.77
2022-10-24T00:37:25.727Z,14.65
2022-10-24T00:38:28.169Z,5.25
2022-10-24T00:39:30.535Z,7.73
2022-10-24T00:40:32.995Z,8.50
2022-10-24T00:41:35.367Z,6.97
2022-10-24T00:42:37.868Z,9.77
2022-10-24T00:43:40.325Z,8.39
2022-10-24T00:44:42.687Z,8.43
2022-10-24T00:45:45.046Z,6.68
2022-10-24T00:46:47.505Z,7.81
2022-10-24T00:47:49.902Z,9.30
2022-10-24T00:48:52.261Z,9.61
2022-10-24T00:49:54.624Z,7.93
2022-10-24T00:50:57.290Z,8.61
2022-10-24T00:51:59.757Z,10.17
2022-10-24T00:53:02.165Z,10.25
2022-10-24T00:54:04.540Z,10.33
2022-10-24T00:55:06.994Z,11.02
2022-10-24T00:56:09.648Z,9.17
2022-10-24T00:57:12.009Z,11.78
2022-10-24T00:58:14.414Z,8.78
2022-10-24T00:59:16.769Z,11.21
2022-10-24T01:00:19.427Z,7.46
2022-10-24T01:01:21.874Z,8.28
2022-10-24T01:02:24.473Z,13.53
2022-10-24T01:03:26.949Z,10.35
2022-10-24T01:04:29.308Z,11.95
2022-10-24T01:05:31.665Z,10.99
2022-10-24T01:06:34.243Z,14.45
2022-10-24T01:07:36.606Z,13.98
2022-10-24T01:08:39.008Z,15.33
2022-10-24T01:09:41.386Z,12.77
2022-10-24T01:10:44.042Z,9.53
2022-10-24T01:11:46.399Z,11.83
2022-10-24T01:12:48.806Z,12.07
2022-10-24T01:13:51.290Z,9.93
2022-10-24T01:14:53.651Z,11.93
2022-10-24T01:15:56.118Z,15.29
2022-10-24T01:16:58.802Z,16.38
2022-10-24T01:18:01.232Z,18.56
2022-10-24T01:19:03.619Z,16.67
2022-10-24T01:20:06.178Z,17.85
2022-10-24T01:21:08.543Z,11.56
2022-10-24T01:22:11.005Z,12.59
2022-10-24T01:23:13.481Z,9.56
2022-10-24T01:24:15.959Z,12.09
2022-10-24T01:25:18.311Z,12.62
2022-10-24T01:26:20.964Z,14.54
2022-10-24T01:27:23.331Z,13.43
2022-10-24T01:28:25.780Z,10.39
2022-10-24T01:29:28.185Z,12.95
2022-10-24T01:30:30.741Z,13.19
2022-10-24T01:31:33.096Z,13.73
2022-10-24T01:32:35.460Z,10.77
2022-10-24T01:33:37.930Z,16.25
2022-10-24T01:34:40.397Z,12.56
2022-10-24T01:35:42.751Z,10.31
2022-10-24T01:36:45.205Z,9.24
2022-10-24T01:37:47.725Z,12.15
2022-10-24T01:38:50.228Z,16.31
2022-10-24T01:39:52.617Z,13.65
2022-10-24T01:40:55.284Z,14.66
2022-10-24T01:41:57.723Z,10.68
2022-10-24T01:43:00.085Z,12.66
2022-10-24T01:44:02.441Z,8.19
2022-10-24T01:45:05.173Z,8.24
2022-10-24T01:46:08.040Z,10.49
2022-10-24T01:47:10.493Z,8.94
2022-10-24T01:48:12.848Z,11.89
2022-10-24T01:49:15.412Z,10.31
2022-10-24T01:50:18.090Z,8.99
2022-10-24T01:51:20.491Z,12.35
2022-10-24T01:52:22.902Z,12.00
2022-10-24T01:53:25.361Z,11.09
2022-10-24T01:54:27.851Z,11.07
2022-10-24T01:55:30.348Z,9.76
2022-10-24T01:56:32.804Z,9.39
2022-10-24T01:57:35.160Z,9.10
2022-10-24T01:58:37.515Z,13.49
2022-10-24T01:59:39.868Z,12.64
2022-10-24T02:01:45.989Z,14.26
2022-10-24T02:02:48.676Z,9.51
2022-10-24T02:03:51.240Z,10.75
2022-10-24T02:04:53.600Z,11.75
2022-10-24T02:05:56.020Z,9.44
2022-10-24T02:06:58.683Z,11.01
2022-10-24T02:08:01.145Z,11.87
2022-10-24T02:10:06.291Z,11.03
2022-10-24T02:11:08.668Z,11.29
2022-10-24T02:12:11.021Z,10.75
2022-10-24T02:13:13.376Z,13.65
2022-10-24T02:14:15.830Z,11.35
2022-10-24T02:15:18.281Z,11.28
2022-10-24T02:16:20.867Z,10.61
2022-10-24T02:17:23.359Z,14.09
2022-10-24T02:18:25.945Z,10.47
2022-10-24T02:19:28.322Z,10.60
2022-10-24T02:20:30.918Z,9.91
2022-10-24T02:21:33.386Z,11.28
2022-10-24T02:22:35.738Z,10.39
2022-10-24T02:23:38.206Z,11.71
2022-10-24T02:24:40.743Z,14.17
2022-10-24T02:25:43.240Z,9.86
2022-10-24T02:26:46.320Z,9.53
2022-10-24T02:27:48.772Z,12.14
2022-10-24T02:28:51.121Z,9.13
2022-10-24T02:29:53.474Z,12.51
2022-10-24T02:30:56.610Z,14.29
2022-10-24T02:31:59.015Z,12.31
2022-10-24T02:33:01.371Z,9.63
2022-10-24T02:34:03.750Z,10.06
2022-10-24T02:35:06.183Z,16.23
2022-10-24T02:36:09.039Z,11.08
2022-10-24T02:37:11.498Z,13.61
2022-10-24T02:38:13.985Z,12.38
2022-10-24T02:39:16.431Z,11.81
2022-10-24T02:40:19.392Z,10.37
2022-10-24T02:41:21.753Z,14.98
2022-10-24T02:42:24.274Z,10.60
2022-10-24T02:43:26.798Z,15.53
2022-10-24T02:44:29.152Z,19.27
2022-10-24T02:45:31.573Z,7.75
2022-10-24T02:46:34.234Z,12.99
2022-10-24T02:47:36.721Z,13.75
2022-10-24T02:48:39.191Z,12.60
2022-10-24T02:49:41.539Z,13.71
2022-10-24T02:50:44.336Z,13.28
2022-10-24T02:51:46.951Z,12.19
2022-10-24T02:52:49.456Z,9.67
2022-10-24T02:53:51.810Z,11.98
2022-10-24T02:54:54.167Z,9.15
2022-10-24T02:55:56.560Z,9.41
2022-10-24T02:56:59.378Z,11.60
2022-10-24T02:58:01.930Z,9.87
2022-10-24T02:59:04.565Z,7.76
2022-10-24T03:00:07.333Z,9.71
2022-10-24T03:01:09.880Z,10.61
2022-10-24T03:02:12.448Z,11.72
2022-10-24T03:03:14.836Z,9.44
2022-10-24T03:04:17.191Z,13.03
2022-10-24T03:05:20.126Z,9.85
2022-10-24T03:06:22.742Z,12.21
2022-10-24T03:07:25.430Z,12.49
2022-10-24T03:08:28.481Z,11.62
2022-10-24T03:09:30.834Z,10.38
2022-10-24T03:10:33.487Z,11.43
2022-10-24T03:11:35.841Z,10.36
2022-10-24T03:12:38.203Z,11.17
2022-10-24T03:13:40.676Z,6.59
2022-10-24T03:14:43.660Z,6.68
2022-10-24T03:16:48.850Z,8.09
2022-10-24T03:17:52.247Z,7.43
2022-10-24T03:18:54.811Z,14.94
2022-10-24T03:19:57.239Z,9.85
2022-10-24T03:20:59.933Z,8.12
2022-10-24T03:22:02.502Z,8.63
2022-10-24T03:23:05.083Z,9.92
2022-10-24T03:25:10.234Z,9.30
2022-10-24T03:26:13.599Z,10.18
2022-10-24T03:27:16.016Z,11.31
2022-10-24T03:28:18.378Z,10.71
2022-10-24T03:29:20.970Z,12.80
2022-10-24T03:30:24.193Z,10.45
2022-10-24T03:31:26.645Z,9.47
2022-10-24T03:32:29.096Z,8.55
2022-10-24T03:33:31.448Z,11.59
2022-10-24T03:34:33.840Z,9.25
2022-10-24T03:35:36.300Z,10.65
2022-10-24T03:36:38.952Z,12.01
2022-10-24T03:37:41.507Z,9.86
2022-10-24T03:38:43.982Z,10.21
2022-10-24T03:39:46.740Z,7.96
2022-10-24T03:40:49.442Z,10.94
2022-10-24T03:41:51.893Z,13.54
2022-10-24T03:42:54.257Z,10.83
2022-10-24T03:43:56.704Z,11.81
2022-10-24T03:44:59.194Z,14.65
2022-10-24T03:46:01.737Z,12.67
2022-10-24T03:47:04.469Z,12.47
2022-10-24T03:48:06.831Z,13.39
2022-10-24T03:49:09.193Z,13.89
2022-10-24T03:50:11.852Z,14.26
2022-10-24T03:51:14.311Z,11.55
2022-10-24T03:52:16.672Z,13.69
2022-10-24T03:53:19.132Z,12.69
2022-10-24T03:54:21.493Z,11.84
2022-10-24T03:55:23.877Z,14.07
2022-10-24T04:57:08.940Z,20.44
2022-10-24T04:58:11.445Z,24.74
2022-10-24T04:59:13.807Z,23.89
2022-10-24T05:00:16.466Z,26.67
2022-10-24T05:01:19.072Z,23.07
2022-10-24T05:02:21.959Z,16.23
2022-10-24T05:03:24.449Z,16.87
2022-10-24T05:04:26.804Z,22.87
2022-10-24T05:05:29.163Z,26.07
2022-10-24T05:06:31.619Z,20.03
2022-10-24T05:07:34.099Z,20.38
2022-10-24T05:08:36.559Z,18.50
2022-10-24T05:09:38.921Z,22.97
2022-10-24T05:10:41.642Z,22.09
2022-10-24T05:11:44.108Z,20.56
2022-10-24T05:12:47.036Z,18.80
2022-10-24T05:13:49.675Z,24.91
2022-10-24T05:14:52.040Z,23.55
2022-10-24T05:15:54.396Z,17.47
2022-10-24T05:16:57.067Z,17.35
2022-10-24T05:17:59.491Z,26.93
2022-10-24T05:19:01.849Z,21.84
2022-10-24T05:20:04.414Z,19.89
2022-10-24T05:21:06.772Z,21.11
2022-10-24T05:22:10.833Z,35.12
2022-10-24T05:23:13.825Z,26.33
2022-10-24T05:24:16.184Z,18.82
2022-10-24T05:25:18.545Z,22.99
2022-10-24T05:26:21.019Z,20.53
2022-10-24T05:27:23.474Z,18.41
2022-10-24T05:28:25.961Z,25.50
2022-10-24T05:29:28.323Z,28.95
2022-10-24T05:30:31.090Z,17.87
2022-10-24T05:31:33.448Z,24.30
2022-10-24T05:32:38.731Z,21.30
2022-10-24T05:33:40.220Z,26.55
2022-10-24T05:34:42.580Z,20.27
2022-10-24T05:35:44.939Z,19.40
2022-10-24T05:36:47.417Z,19.77
2022-10-24T05:37:49.863Z,21.13
2022-10-24T05:38:52.359Z,17.97
2022-10-24T05:39:54.814Z,21.33
2022-10-24T05:40:57.173Z,20.05
2022-10-24T05:41:59.528Z,21.79
2022-10-24T05:43:01.889Z,24.00
2022-10-24T05:44:04.381Z,20.92
2022-10-24T05:45:06.908Z,23.96
2022-10-24T05:46:09.566Z,24.95
2022-10-24T05:47:11.928Z,18.12
2022-10-24T05:48:14.294Z,16.92
2022-10-24T05:49:16.784Z,16.88
2022-10-24T05:50:19.968Z,14.12
2022-10-24T05:51:22.334Z,19.01
2022-10-24T05:52:24.804Z,21.55
2022-10-24T05:53:27.260Z,18.54
2022-10-24T05:54:37.639Z,16.85
2022-10-24T05:55:33.930Z,21.04
2022-10-24T05:56:36.591Z,20.24
2022-10-24T05:57:38.966Z,19.29
2022-10-24T05:58:41.410Z,27.17
2022-10-24T05:59:44.178Z,17.43
2022-10-24T06:00:49.926Z,15.81
2022-10-24T06:01:51.384Z,18.36
2022-10-24T06:02:54.212Z,15.32
2022-10-24T06:03:56.573Z,22.13
2022-10-24T06:04:58.976Z,16.79
2022-10-24T06:06:01.339Z,17.01
2022-10-24T06:07:03.700Z,19.19
2022-10-24T06:08:06.067Z,21.21
2022-10-24T06:09:08.555Z,17.67
2022-10-24T06:10:11.665Z,19.44
2022-10-24T06:11:14.113Z,19.59
2022-10-24T06:12:16.684Z,17.43
2022-10-24T06:13:19.077Z,25.36
2022-10-24T06:14:21.525Z,20.49
2022-10-24T06:15:23.928Z,20.37
2022-10-24T06:16:26.486Z,23.02
2022-10-24T06:17:28.844Z,26.21
2022-10-24T06:18:31.203Z,16.22
2022-10-24T06:19:33.565Z,18.03
2022-10-24T06:20:36.209Z,16.37
2022-10-24T06:21:38.658Z,19.67
2022-10-24T06:22:41.116Z,17.03
2022-10-24T06:23:43.474Z,20.46
2022-10-24T06:24:45.840Z,21.07
2022-10-24T06:25:48.234Z,15.99
2022-10-24T06:26:51.000Z,14.01
2022-10-24T06:27:53.371Z,16.11
2022-10-24T06:28:55.733Z,18.77
2022-10-24T06:29:58.090Z,17.71
2022-10-24T06:31:00.699Z,15.17
2022-10-24T06:32:03.159Z,18.07
2022-10-24T06:33:05.519Z,18.18
2022-10-24T06:34:07.935Z,18.53
2022-10-24T06:35:10.437Z,19.63
2022-10-24T06:36:14.717Z,20.36
2022-10-24T06:37:17.090Z,19.99
2022-10-24T06:38:19.555Z,20.30
2022-10-24T06:39:22.025Z,23.67
2022-10-24T06:40:24.382Z,20.76
2022-10-24T06:41:26.773Z,18.39
2022-10-24T06:42:29.133Z,19.00
2022-10-24T06:43:31.595Z,17.84
2022-10-24T06:44:33.953Z,17.81
2022-10-24T06:45:36.324Z,16.73
2022-10-24T06:46:38.925Z,17.95
2022-10-24T06:47:41.589Z,19.11
2022-10-24T06:48:44.047Z,18.42
2022-10-24T06:49:46.510Z,22.21
2022-10-24T06:50:49.276Z,17.39
2022-10-24T06:51:51.675Z,19.90
2022-10-24T06:52:54.225Z,18.25
2022-10-24T06:53:56.588Z,18.81
2022-10-24T06:54:58.846Z,29.85
2022-10-24T06:56:01.209Z,24.31
2022-10-24T06:57:03.729Z,18.13
2022-10-24T06:58:06.091Z,20.49
2022-10-24T06:59:08.551Z,18.04
2022-10-24T07:00:11.735Z,19.19
2022-10-24T07:01:14.304Z,18.33
2022-10-24T07:02:16.994Z,18.01
2022-10-24T07:03:19.467Z,24.53
2022-10-24T07:04:21.833Z,18.82
2022-10-24T07:05:24.197Z,20.71
2022-10-24T07:06:26.859Z,16.96
2022-10-24T07:07:29.354Z,18.20
2022-10-24T07:08:31.815Z,22.20
2022-10-24T07:09:34.177Z,18.41
2022-10-24T07:10:36.650Z,17.27
2022-10-24T07:11:39.083Z,22.44
2022-10-24T07:12:41.609Z,17.47
2022-10-24T07:13:44.328Z,20.81
2022-10-24T07:14:46.683Z,14.82
2022-10-24T07:15:49.044Z,18.91
2022-10-24T07:16:51.755Z,18.66
2022-10-24T07:17:54.160Z,19.88
2022-10-24T07:18:56.516Z,19.43
2022-10-24T07:19:58.870Z,24.59
2022-10-24T07:21:01.422Z,16.73
2022-10-24T07:22:03.782Z,22.85
2022-10-24T07:23:06.177Z,22.35
2022-10-24T07:24:08.537Z,18.42
2022-10-24T07:25:11.200Z,21.77
2022-10-24T07:26:13.868Z,16.89
2022-10-24T07:27:16.230Z,18.31
2022-10-24T07:28:18.628Z,17.43
2022-10-24T07:29:20.986Z,25.83
2022-10-24T07:30:23.643Z,20.35
2022-10-24T07:31:26.094Z,16.31
2022-10-24T07:32:28.451Z,16.68
2022-10-24T07:33:30.840Z,14.61
2022-10-24T07:34:33.194Z,16.31
2022-10-24T07:35:35.557Z,16.70
2022-10-24T07:36:41.578Z,14.84
2022-10-24T07:37:42.499Z,15.71
2022-10-24T07:38:45.289Z,12.71
2022-10-24T07:39:47.645Z,17.43
2022-10-24T07:40:50.303Z,20.71
2022-10-24T07:41:52.659Z,18.93
2022-10-24T07:42:55.015Z,23.04
2022-10-24T07:43:57.405Z,12.68
2022-10-24T07:44:59.869Z,18.20
2022-10-24T07:46:02.418Z,14.15
2022-10-24T07:47:04.873Z,14.52
2022-10-24T07:48:07.334Z,26.83
2022-10-24T07:49:09.727Z,20.33
2022-10-24T07:50:12.482Z,19.29
2022-10-24T07:51:14.843Z,20.11
2022-10-24T07:52:17.220Z,17.19
2022-10-24T07:53:19.575Z,18.22
2022-10-24T07:55:24.320Z,15.23
2022-10-24T07:56:26.975Z,15.50
2022-10-24T07:57:29.428Z,13.61
2022-10-24T07:58:31.794Z,14.53
2022-10-24T07:59:42.062Z,16.74
2022-10-24T08:00:44.072Z,15.33
2022-10-24T08:01:43.058Z,13.65
2022-10-24T08:02:45.907Z,16.48
2022-10-24T08:03:48.445Z,14.31
2022-10-24T08:04:50.849Z,17.48
2022-10-24T08:05:53.215Z,13.17
2022-10-24T08:06:55.768Z,17.29
2022-10-24T08:08:11.933Z,14.23
2022-10-24T08:09:02.399Z,15.13
2022-10-24T08:10:05.079Z,14.27
2022-10-24T08:11:07.443Z,16.43
2022-10-24T08:12:09.894Z,18.12
2022-10-24T08:13:13.600Z,18.98
2022-10-24T08:14:16.326Z,17.21
2022-10-24T08:15:18.722Z,21.12
2022-10-24T08:16:21.376Z,19.11
2022-10-24T08:17:23.739Z,16.81
2022-10-24T08:18:29.277Z,18.11
2022-10-24T08:19:30.384Z,15.32
2022-10-24T08:20:33.001Z,15.03
2022-10-24T08:21:35.459Z,18.16
2022-10-24T08:22:37.913Z,20.30
2022-10-24T08:23:40.273Z,17.89
2022-10-24T08:24:42.628Z,19.40
2022-10-24T08:25:45.031Z,20.08
2022-10-24T08:26:47.488Z,18.27
2022-10-24T08:27:49.850Z,17.59
2022-10-24T08:28:52.306Z,13.91
2022-10-24T08:29:54.671Z,20.22
2022-10-24T08:30:57.263Z,17.25
2022-10-24T08:31:59.641Z,15.54
2022-10-24T08:33:02.096Z,14.54
2022-10-24T08:34:04.555Z,17.29
2022-10-24T08:35:07.012Z,13.64
2022-10-24T08:36:09.998Z,13.96
2022-10-24T08:37:12.354Z,14.71
2022-10-24T08:38:14.808Z,17.29
2022-10-24T08:39:17.165Z,12.50
2022-10-24T08:40:20.028Z,10.16
2022-10-24T08:41:22.410Z,12.59
2022-10-24T08:42:24.866Z,12.69
2022-10-24T08:43:27.322Z,14.82
2022-10-24T08:44:29.689Z,11.33
2022-10-24T08:45:32.044Z,15.24
2022-10-24T08:46:34.527Z,17.53
2022-10-24T08:48:40.788Z,10.12
2022-10-24T08:49:45.221Z,15.84
2022-10-24T08:50:47.644Z,12.89
2022-10-24T08:51:50.029Z,16.65
2022-10-24T08:52:52.391Z,12.57
2022-10-24T08:53:54.837Z,10.98
2022-10-24T08:54:57.197Z,9.93
2022-10-24T08:55:59.550Z,11.64
2022-10-24T08:57:02.134Z,10.68
2022-10-24T08:58:04.490Z,11.57
2022-10-24T08:59:06.853Z,11.64
2022-10-24T09:00:09.508Z,10.86
2022-10-24T09:01:11.967Z,10.23
2022-10-24T09:02:14.728Z,10.16
2022-10-24T09:03:22.919Z,10.80
2022-10-24T09:04:21.490Z,9.52
2022-10-24T09:05:23.851Z,11.48
2022-10-24T09:06:26.409Z,9.19
2022-10-24T09:07:28.897Z,9.13
2022-10-24T09:08:31.244Z,9.85
2022-10-24T09:09:33.617Z,15.33
2022-10-24T09:10:36.177Z,9.90
2022-10-24T09:11:38.654Z,8.96
2022-10-24T09:12:41.082Z,9.83
2022-10-24T09:13:43.511Z,14.96
2022-10-24T09:14:45.870Z,8.14
2022-10-24T09:15:48.229Z,9.31
2022-10-24T09:16:50.990Z,9.11
2022-10-24T09:17:53.380Z,10.11
2022-10-24T09:18:55.732Z,9.77
2022-10-24T09:19:58.087Z,10.52
2022-10-24T09:21:00.780Z,10.18
2022-10-24T09:22:03.129Z,9.51
2022-10-24T09:23:05.639Z,25.23
2022-10-24T09:24:08.106Z,7.22
2022-10-24T09:25:10.562Z,6.80
2022-10-24T09:26:13.222Z,7.98
2022-10-24T09:27:15.658Z,8.22
2022-10-24T09:28:18.175Z,6.95
2022-10-24T09:29:20.637Z,7.17
2022-10-24T09:30:22.999Z,10.05
2022-10-24T09:31:25.457Z,6.71
2022-10-24T09:32:27.854Z,7.01
2022-10-24T09:33:30.241Z,5.77
2022-10-24T09:34:32.610Z,4.62
2022-10-24T09:35:35.005Z,4.80
2022-10-24T09:36:37.708Z,4.48
2022-10-24T09:37:42.761Z,7.24
2022-10-24T09:38:44.380Z,4.64
2022-10-24T09:39:46.743Z,4.25
2022-10-24T09:40:49.300Z,5.89
2022-10-24T09:41:51.779Z,5.24
2022-10-24T09:42:54.221Z,6.66
2022-10-24T09:43:56.610Z,6.02
2022-10-24T09:44:58.982Z,4.87
2022-10-24T09:46:01.432Z,6.20
2022-10-24T09:47:03.794Z,4.41
2022-10-24T09:48:06.274Z,8.31
2022-10-24T09:49:08.775Z,5.01
2022-10-24T09:50:11.442Z,5.21
2022-10-24T09:51:13.813Z,4.75
2022-10-24T09:52:16.276Z,5.99
2022-10-24T09:53:18.638Z,6.48
2022-10-24T09:54:21.050Z,7.08
2022-10-24T09:55:23.499Z,5.87
2022-10-24T09:56:25.954Z,7.37
2022-10-24T09:57:30.856Z,6.03
2022-10-24T09:58:32.618Z,6.34
2022-10-24T09:59:35.117Z,6.13
2022-10-24T10:00:37.883Z,4.49
2022-10-24T10:01:40.428Z,4.39
2022-10-24T10:02:43.203Z,5.89
2022-10-24T10:03:45.565Z,7.62
2022-10-24T10:04:47.973Z,8.33
2022-10-24T10:05:50.327Z,5.55
2022-10-24T10:06:53.045Z,7.09
2022-10-24T10:07:55.651Z,5.81
2022-10-24T10:08:58.050Z,8.66
2022-10-24T10:10:00.519Z,10.69
2022-10-24T10:11:02.880Z,4.26
2022-10-24T10:12:05.242Z,6.51
2022-10-24T10:13:07.602Z,4.19
2022-10-24T10:14:09.967Z,4.55
2022-10-24T10:15:12.388Z,6.57
2022-10-24T10:16:16.002Z,5.15
2022-10-24T10:17:18.736Z,5.49
2022-10-24T10:18:21.093Z,5.04
2022-10-24T10:19:23.456Z,4.25
2022-10-24T10:20:25.865Z,3.35
2022-10-24T10:21:28.230Z,3.14
2022-10-24T10:22:30.688Z,8.33
2022-10-24T10:23:33.173Z,3.45
2022-10-24T10:24:35.613Z,5.26
2022-10-24T10:25:38.207Z,4.40
2022-10-24T10:26:40.865Z,8.71
2022-10-24T10:27:43.534Z,4.03
2022-10-24T10:28:46.294Z,3.53
2022-10-24T10:29:48.753Z,3.89
2022-10-24T10:30:51.256Z,6.00
2022-10-24T10:31:53.614Z,3.73
2022-10-24T10:32:55.983Z,4.79
2022-10-24T10:33:58.439Z,8.31
2022-10-24T10:35:00.804Z,6.65
2022-10-24T10:36:03.396Z,4.93
2022-10-24T10:37:05.857Z,5.83
2022-10-24T10:38:08.317Z,4.60
2022-10-24T10:39:10.688Z,5.21
2022-10-24T10:40:13.147Z,5.43
2022-10-24T10:41:15.534Z,4.85
2022-10-24T10:42:17.891Z,4.91
2022-10-24T10:43:20.282Z,4.82
2022-10-24T10:44:22.738Z,7.11
2022-10-24T10:45:25.195Z,2.88
2022-10-24T10:46:27.700Z,2.93
2022-10-24T10:47:30.155Z,3.27
2022-10-24T10:48:32.615Z,2.97
2022-10-24T10:49:34.974Z,3.78
2022-10-24T10:50:37.631Z,2.67
2022-10-24T10:51:40.029Z,3.87
2022-10-24T10:52:42.648Z,3.28
2022-10-24T10:53:45.394Z,2.67
2022-10-24T10:54:47.837Z,2.42
2022-10-24T10:55:50.211Z,2.48
2022-10-24T10:56:52.953Z,2.75
2022-10-24T10:57:55.386Z,4.76
2022-10-24T10:58:57.748Z,2.78
2022-10-24T11:00:00.162Z,3.49
2022-10-24T11:01:03.062Z,3.77
2022-10-24T11:02:05.909Z,3.64
2022-10-24T11:03:08.473Z,3.20
2022-10-24T11:04:10.877Z,3.85
2022-10-24T11:05:13.332Z,3.58
2022-10-24T11:06:15.893Z,3.73
2022-10-24T11:07:18.383Z,2.95
2022-10-24T11:08:20.840Z,3.15
2022-10-24T11:09:23.230Z,3.43
2022-10-24T11:10:25.657Z,3.50
2022-10-24T11:11:28.240Z,6.70
2022-10-24T11:12:30.749Z,5.91
2022-10-24T11:13:34.262Z,6.56
2022-10-24T11:14:37.381Z,4.93
2022-10-24T11:15:39.737Z,4.59
2022-10-24T11:16:42.298Z,4.01
2022-10-24T11:17:44.998Z,6.41
2022-10-24T11:18:47.665Z,5.03
2022-10-24T11:19:50.028Z,2.92
2022-10-24T11:20:52.940Z,4.91
2022-10-24T11:21:55.383Z,4.89
2022-10-24T11:22:57.793Z,7.15
2022-10-24T11:24:00.153Z,6.24
2022-10-24T11:25:02.621Z,9.57
2022-10-24T11:26:05.402Z,5.15
2022-10-24T11:27:07.868Z,5.14
2022-10-24T11:28:10.273Z,5.07
2022-10-24T11:29:12.632Z,4.11
2022-10-24T11:30:16.025Z,5.94
2022-10-24T11:31:18.474Z,3.87
2022-10-24T11:32:20.837Z,3.61
2022-10-24T11:33:23.283Z,3.47
2022-10-24T11:34:25.643Z,3.31
2022-10-24T11:35:28.095Z,5.29
2022-10-24T11:36:30.546Z,5.43
2022-10-24T11:37:32.910Z,5.81
2022-10-24T11:38:35.308Z,6.97
2022-10-24T11:39:37.662Z,4.78
2022-10-24T11:40:40.862Z,4.12
2022-10-24T11:41:43.839Z,6.54
2022-10-24T11:42:46.590Z,5.59
2022-10-24T11:43:49.625Z,7.15
2022-10-24T11:44:52.170Z,6.11
2022-10-24T11:45:54.531Z,6.33
2022-10-24T11:46:57.183Z,6.90
2022-10-24T11:47:59.535Z,3.49
2022-10-24T11:49:01.944Z,4.30
2022-10-24T11:50:04.597Z,4.93
2022-10-24T11:51:06.953Z,3.97
2022-10-24T11:52:09.317Z,2.25
2022-10-24T11:53:11.690Z,2.53
2022-10-24T11:54:14.069Z,2.63
2022-10-24T11:55:16.427Z,3.30
2022-10-24T11:56:23.473Z,4.16
2022-10-24T11:57:23.994Z,5.69
2022-10-24T11:58:26.445Z,3.65
2022-10-24T11:59:28.843Z,2.27
2022-10-24T12:00:31.299Z,4.46
2022-10-24T12:01:33.694Z,2.21
2022-10-24T12:02:36.463Z,4.52
2022-10-24T12:03:38.991Z,4.61
2022-10-24T12:04:41.387Z,5.07
2022-10-24T12:05:43.800Z,3.85
2022-10-24T12:06:46.359Z,3.42
2022-10-24T12:07:48.905Z,4.96
2022-10-24T12:08:51.466Z,4.14
2022-10-24T12:09:53.847Z,5.13
2022-10-24T12:10:56.406Z,2.91
2022-10-24T12:11:58.778Z,3.85
2022-10-24T12:13:01.140Z,2.51
2022-10-24T12:15:05.928Z,2.97
2022-10-24T12:16:08.582Z,3.85
2022-10-24T12:17:10.975Z,3.41
2022-10-24T12:18:13.449Z,3.14
2022-10-24T12:19:15.807Z,2.79
2022-10-24T12:20:18.731Z,4.37
2022-10-24T12:21:25.745Z,3.50
2022-10-24T12:23:27.784Z,6.23
2022-10-24T12:24:30.150Z,5.17
2022-10-24T12:25:32.546Z,4.51
2022-10-24T12:26:34.912Z,8.56
2022-10-24T12:27:37.363Z,3.77
2022-10-24T12:28:39.711Z,4.01
2022-10-24T12:29:42.371Z,4.81
2022-10-24T12:30:45.082Z,5.69
2022-10-24T12:31:47.520Z,3.67
2022-10-24T12:32:50.237Z,3.99
2022-10-24T12:33:53.069Z,5.86
2022-10-24T12:35:02.256Z,4.25
2022-10-24T12:35:59.823Z,3.92
2022-10-24T12:37:02.276Z,5.45
2022-10-24T12:38:04.632Z,4.37
2022-10-24T12:39:07.088Z,6.04
2022-10-24T12:40:09.948Z,4.34
2022-10-24T12:41:12.432Z,6.60
2022-10-24T12:42:14.800Z,4.19
2022-10-24T12:43:17.196Z,2.53
2022-10-24T12:44:19.633Z,2.61
2022-10-24T12:45:22.002Z,6.67
2022-10-24T12:46:24.793Z,4.79
2022-10-24T12:47:27.130Z,3.23
2022-10-24T12:48:29.484Z,4.37
2022-10-24T12:49:31.834Z,3.77
2022-10-24T12:50:34.502Z,3.65
2022-10-24T12:51:36.899Z,7.62
2022-10-24T12:52:39.254Z,3.47
2022-10-24T12:53:41.611Z,4.59
2022-10-24T12:54:43.980Z,8.85
2022-10-24T12:55:46.331Z,4.55
2022-10-24T12:56:49.031Z,5.44
2022-10-24T12:57:51.396Z,5.49
2022-10-24T12:58:53.755Z,4.59
2022-10-24T12:59:56.416Z,5.55
2022-10-24T13:00:59.081Z,3.23
2022-10-24T13:02:03.688Z,4.29
2022-10-24T13:03:05.742Z,2.79
2022-10-24T13:04:08.098Z,4.49
2022-10-24T13:05:10.451Z,10.05
2022-10-24T13:06:14.616Z,6.55
2022-10-24T13:07:17.009Z,4.66
2022-10-24T13:08:19.462Z,3.95
2022-10-24T13:09:21.820Z,10.97
2022-10-24T13:10:24.286Z,7.70
2022-10-24T13:11:26.638Z,4.31
2022-10-24T13:12:29.025Z,6.22
2022-10-24T13:13:31.572Z,6.74
2022-10-24T13:14:33.925Z,3.53
2022-10-24T13:15:36.277Z,4.59
2022-10-24T13:16:38.728Z,6.09
2022-10-24T13:17:41.231Z,7.92
2022-10-24T13:18:43.584Z,10.11
2022-10-24T13:19:45.943Z,10.17
2022-10-24T13:20:48.518Z,5.74
2022-10-24T13:21:50.986Z,6.75
2022-10-24T13:22:53.463Z,6.61
2022-10-24T13:23:55.815Z,3.41
2022-10-24T13:24:58.179Z,3.98
2022-10-24T13:26:00.544Z,5.83
2022-10-24T13:27:02.904Z,4.21
2022-10-24T13:28:05.294Z,6.14
2022-10-24T13:29:07.772Z,5.75
2022-10-24T13:30:10.739Z,4.85
2022-10-24T13:31:13.194Z,4.13
2022-10-24T13:32:18.678Z,5.65
2022-10-24T13:33:19.890Z,4.22
2022-10-24T13:34:22.240Z,2.67
2022-10-24T13:35:24.602Z,3.60
2022-10-24T13:36:28.664Z,3.98
2022-10-24T13:37:31.235Z,4.15
2022-10-24T13:38:33.625Z,3.08
2022-10-24T13:39:38.797Z,7.01
2022-10-24T13:40:40.494Z,4.59
2022-10-24T13:41:42.947Z,9.11
2022-10-24T13:42:45.656Z,4.71
2022-10-24T13:43:48.513Z,7.08
2022-10-24T13:44:50.871Z,5.93
2022-10-24T13:45:53.244Z,7.09
2022-10-24T13:46:56.201Z,4.13
2022-10-24T13:47:58.563Z,5.39
2022-10-24T13:49:00.950Z,9.05
2022-10-24T13:50:03.611Z,3.35
2022-10-24T13:51:05.975Z,4.21
2022-10-24T13:52:08.455Z,3.43
2022-10-24T13:53:10.810Z,3.70
2022-10-24T13:54:13.212Z,6.77
2022-10-24T13:55:15.591Z,6.11
2022-10-24T13:56:18.336Z,5.92
2022-10-24T13:57:20.707Z,7.07
2022-10-24T13:58:23.182Z,6.47
2022-10-24T13:59:25.656Z,6.48
2022-10-24T14:00:28.118Z,11.55
2022-10-24T14:01:30.663Z,7.59
2022-10-24T14:02:33.257Z,5.29
2022-10-24T14:03:36.928Z,3.81
2022-10-24T14:04:40.049Z,4.51
2022-10-24T14:05:42.407Z,6.93
2022-10-24T14:06:45.065Z,5.01
2022-10-24T14:07:47.431Z,6.19
2022-10-24T14:09:01.438Z,6.31
2022-10-24T14:10:56.462Z,6.73
2022-10-24T14:11:58.824Z,7.95
2022-10-24T14:13:01.189Z,6.69
2022-10-24T14:14:07.199Z,6.00
2022-10-24T14:15:07.982Z,6.79
2022-10-24T14:16:11.242Z,7.68
2022-10-24T14:17:13.604Z,8.07
2022-10-24T14:19:20.277Z,5.51
2022-10-24T14:20:22.846Z,6.59
2022-10-24T14:21:25.309Z,7.88
2022-10-24T14:22:27.667Z,7.60
2022-10-24T14:23:30.134Z,7.28
2022-10-24T14:24:32.625Z,5.01
2022-10-24T14:25:35.288Z,7.45
2022-10-24T14:26:37.961Z,10.09
2022-10-24T14:27:40.396Z,5.05
2022-10-24T14:28:42.791Z,7.41
2022-10-24T14:29:45.244Z,7.44
2022-10-24T14:30:48.043Z,7.09
2022-10-24T14:31:50.502Z,5.40
2022-10-24T14:32:52.946Z,5.93
2022-10-24T14:33:55.422Z,4.65
2022-10-24T14:34:57.901Z,7.89
2022-10-24T14:36:00.420Z,5.85
2022-10-24T14:37:02.881Z,5.03
2022-10-24T14:38:08.925Z,8.49
2022-10-24T14:39:09.691Z,8.08
2022-10-24T14:40:12.629Z,8.41
2022-10-24T14:41:15.031Z,8.81
2022-10-24T14:42:17.394Z,11.83
2022-10-24T14:44:23.252Z,9.30
2022-10-24T14:45:25.611Z,7.00
2022-10-24T14:46:28.400Z,8.20
2022-10-24T14:47:30.772Z,10.44
2022-10-24T14:48:33.135Z,8.73
2022-10-24T14:49:35.500Z,8.89
2022-10-24T14:50:38.167Z,6.48
2022-10-24T14:51:40.801Z,10.45
2022-10-24T14:52:45.162Z,7.16